createdAt,value
2019-02-19T00:01:53.671Z,2.60
2019-02-19T00:04:26.453Z,2.50
2019-02-19T00:06:54.120Z,2.90
2019-02-19T00:09:22.389Z,2.50
2019-02-19T00:11:50.665Z,2.40
2019-02-19T00:14:18.941Z,2.40
2019-02-19T00:16:47.423Z,2.40
2019-02-19T00:19:15.494Z,2.40
2019-02-19T00:21:43.563Z,2.40
2019-02-19T00:24:11.841Z,2.30
2019-02-19T00:26:41.344Z,2.30
2019-02-19T00:29:09.621Z,2.30
2019-02-19T00:31:37.895Z,2.30
2019-02-19T00:34:06.170Z,2.20
2019-02-19T00:36:36.085Z,2.30
2019-02-19T00:39:17.697Z,2.20
2019-02-19T00:41:45.334Z,2.10
2019-02-19T00:44:13.405Z,2.10
2019-02-19T00:46:41.884Z,2.00
2019-02-19T00:49:10.366Z,1.90
2019-02-19T00:51:38.847Z,1.90
2019-02-19T00:54:07.124Z,1.90
2019-02-19T00:56:35.399Z,1.90
2019-02-19T00:59:03.688Z,1.90
2019-02-19T01:01:32.156Z,1.90
2019-02-19T01:04:00.638Z,1.80
2019-02-19T01:06:30.142Z,1.80
2019-02-19T01:08:59.234Z,1.80
2019-02-19T01:11:26.898Z,1.70
2019-02-19T01:13:55.241Z,1.60
2019-02-19T01:16:23.652Z,1.50
2019-02-19T01:18:53.156Z,1.50
2019-02-19T01:21:22.661Z,1.50
2019-02-19T01:23:52.015Z,1.50
2019-02-19T01:26:20.440Z,1.50
2019-02-19T01:29:08.386Z,1.60
2019-02-19T01:31:37.682Z,1.70
2019-02-19T01:34:07.183Z,1.50
2019-02-19T01:36:36.895Z,1.50
2019-02-19T01:39:05.373Z,1.40
2019-02-19T01:41:34.877Z,1.50
2019-02-19T01:44:03.153Z,1.50
2019-02-19T01:46:31.632Z,1.40
2019-02-19T01:49:00.112Z,1.40
2019-02-19T01:51:28.593Z,1.40
2019-02-19T01:54:13.729Z,1.40
2019-02-19T01:56:41.324Z,1.30
2019-02-19T01:59:09.805Z,1.30
2019-02-19T02:01:38.286Z,1.20
2019-02-19T02:04:06.608Z,1.20
2019-02-19T02:06:36.065Z,1.10
2019-02-19T02:09:05.162Z,1.10
2019-02-19T02:11:45.344Z,1.00
2019-02-19T02:14:12.975Z,1.00
2019-02-19T02:16:41.456Z,1.00
2019-02-19T02:19:09.733Z,1.00
2019-02-19T02:21:38.007Z,1.10
2019-02-19T02:24:06.288Z,1.00
2019-02-19T02:26:34.558Z,1.00
2019-02-19T02:29:02.835Z,0.90
2019-02-19T02:31:31.204Z,0.90
2019-02-19T02:33:58.980Z,0.80
2019-02-19T02:36:27.457Z,0.90
2019-02-19T02:38:55.937Z,0.90
2019-02-19T02:41:24.418Z,1.10
2019-02-19T02:43:52.900Z,1.10
2019-02-19T02:46:21.379Z,1.10
2019-02-19T02:48:49.860Z,1.20
2019-02-19T02:51:19.364Z,1.30
2019-02-19T02:53:47.639Z,1.40
2019-02-19T02:56:15.916Z,1.40
2019-02-19T02:58:43.732Z,1.40
2019-02-19T03:01:12.057Z,1.50
2019-02-19T03:03:40.129Z,1.40
2019-02-19T03:06:15.777Z,1.40
2019-02-19T03:08:44.260Z,1.40
2019-02-19T03:11:25.417Z,1.40
2019-02-19T03:13:53.098Z,1.60
2019-02-19T03:16:23.011Z,1.30
2019-02-19T03:18:51.081Z,1.20
2019-02-19T03:21:19.562Z,1.20
2019-02-19T03:23:47.848Z,1.20
2019-02-19T03:26:16.113Z,1.20
2019-02-19T03:28:44.593Z,1.10
2019-02-19T03:31:13.076Z,1.10
2019-02-19T03:33:41.146Z,1.00
2019-02-19T03:36:09.216Z,1.00
2019-02-19T03:38:37.293Z,1.00
2019-02-19T03:41:05.358Z,0.90
2019-02-19T03:43:33.430Z,0.90
2019-02-19T03:46:01.505Z,0.90
2019-02-19T03:48:48.934Z,0.90
2019-02-19T03:51:16.690Z,1.00
2019-02-19T03:53:45.171Z,1.00
2019-02-19T03:56:14.675Z,1.10
2019-02-19T03:58:44.178Z,1.10
2019-02-19T04:01:12.660Z,1.10
2019-02-19T04:03:41.139Z,1.10
2019-02-19T04:06:09.416Z,1.10
2019-02-19T04:08:37.691Z,1.00
2019-02-19T04:11:05.967Z,1.10
2019-02-19T04:13:34.244Z,1.10
2019-02-19T04:16:02.520Z,1.10
2019-02-19T04:18:30.793Z,1.10
2019-02-19T04:20:59.068Z,1.10
2019-02-19T04:23:27.344Z,1.10
2019-02-19T04:25:56.234Z,1.20
2019-02-19T04:28:24.304Z,1.10
2019-02-19T04:30:52.377Z,1.10
2019-02-19T04:33:20.450Z,1.10
2019-02-19T04:35:48.518Z,1.00
2019-02-19T04:38:16.588Z,1.00
2019-02-19T04:40:44.660Z,1.00
2019-02-19T04:43:13.140Z,0.90
2019-02-19T04:45:42.644Z,0.90
2019-02-19T04:48:10.920Z,0.90
2019-02-19T04:50:40.634Z,0.90
2019-02-19T04:53:09.111Z,0.90
2019-02-19T04:55:37.591Z,0.90
2019-02-19T04:58:05.866Z,0.90
2019-02-19T05:00:34.141Z,0.90
2019-02-19T05:03:02.420Z,1.00
2019-02-19T05:05:30.693Z,1.00
2019-02-19T05:07:58.970Z,1.00
2019-02-19T05:10:27.310Z,1.10
2019-02-19T05:12:55.315Z,1.10
2019-02-19T05:15:23.592Z,1.10
2019-02-19T05:17:51.866Z,1.10
2019-02-19T05:20:20.145Z,1.10
2019-02-19T05:22:48.419Z,1.20
2019-02-19T05:25:17.986Z,1.30
2019-02-19T05:27:59.666Z,1.20
2019-02-19T05:30:27.389Z,2.90
2019-02-19T05:32:55.857Z,1.30
2019-02-19T05:35:24.339Z,1.30
2019-02-19T05:37:52.818Z,1.30
2019-02-19T05:40:21.298Z,1.30
2019-02-19T05:42:51.009Z,1.30
2019-02-19T05:45:19.488Z,1.30
2019-02-19T05:47:47.970Z,1.20
2019-02-19T05:50:17.679Z,1.10
2019-02-19T05:52:45.958Z,1.10
2019-02-19T05:55:14.231Z,1.20
2019-02-19T05:57:42.505Z,1.20
2019-02-19T06:00:12.215Z,1.20
2019-02-19T06:02:52.939Z,1.20
2019-02-19T06:05:20.648Z,1.20
2019-02-19T06:07:48.924Z,1.10
2019-02-19T06:10:16.992Z,1.10
2019-02-19T06:12:46.297Z,1.00
2019-02-19T06:15:14.514Z,1.00
2019-02-19T06:17:44.275Z,1.00
2019-02-19T06:20:12.551Z,1.00
2019-02-19T06:22:40.830Z,1.00
2019-02-19T06:25:10.335Z,1.00
2019-02-19T06:27:38.615Z,1.10
2019-02-19T06:30:10.407Z,1.10
2019-02-19T06:32:38.025Z,1.10
2019-02-19T06:35:07.147Z,1.10
2019-02-19T06:37:34.624Z,1.10
2019-02-19T06:40:05.515Z,1.10
2019-02-19T06:42:33.381Z,1.10
2019-02-19T06:45:01.657Z,1.20
2019-02-19T06:47:29.932Z,1.20
2019-02-19T06:49:58.208Z,1.30
2019-02-19T06:52:26.484Z,1.30
2019-02-19T06:54:54.761Z,1.30
2019-02-19T06:57:23.035Z,1.40
2019-02-19T06:59:51.312Z,1.50
2019-02-19T07:02:21.225Z,1.60
2019-02-19T07:04:50.319Z,1.60
2019-02-19T07:07:18.391Z,1.60
2019-02-19T07:09:46.872Z,1.70
2019-02-19T07:12:15.351Z,1.70
2019-02-19T07:14:43.627Z,1.80
2019-02-19T07:17:15.737Z,1.80
2019-02-19T07:19:41.612Z,1.90
2019-02-19T07:22:11.117Z,2.00
2019-02-19T07:24:39.597Z,2.10
2019-02-19T07:27:27.494Z,2.10
2019-02-19T07:29:55.195Z,2.20
2019-02-19T07:32:23.678Z,2.20
2019-02-19T07:34:52.157Z,2.40
2019-02-19T07:37:20.637Z,2.50
2019-02-19T07:39:48.913Z,2.70
2019-02-19T07:42:17.189Z,2.80
2019-02-19T07:44:45.464Z,2.90
2019-02-19T07:47:13.740Z,3.00
2019-02-19T07:49:42.015Z,3.20
2019-02-19T07:52:10.291Z,3.40
2019-02-19T07:54:38.570Z,3.40
2019-02-19T07:57:06.638Z,3.50
2019-02-19T07:59:35.120Z,3.60
2019-02-19T08:02:03.600Z,3.90
2019-02-19T08:04:32.085Z,3.90
2019-02-19T08:07:00.767Z,3.90
2019-02-19T08:09:29.246Z,4.00
2019-02-19T08:12:10.938Z,4.10
2019-02-19T08:14:38.494Z,4.70
2019-02-19T08:17:08.481Z,4.40
2019-02-19T08:19:38.117Z,4.90
2019-02-19T08:22:05.781Z,4.70
2019-02-19T08:24:34.259Z,4.70
2019-02-19T08:27:02.536Z,4.70
2019-02-19T08:29:30.810Z,4.60
2019-02-19T08:31:59.291Z,4.80
2019-02-19T08:34:27.773Z,5.30
2019-02-19T08:36:56.252Z,5.80
2019-02-19T08:39:24.734Z,6.50
2019-02-19T08:41:53.256Z,7.10
2019-02-19T08:44:21.694Z,8.00
2019-02-19T08:46:50.174Z,8.60
2019-02-19T08:49:18.660Z,8.70
2019-02-19T08:51:55.750Z,9.80
2019-02-19T08:54:17.049Z,8.80
2019-02-19T08:56:45.530Z,9.20
2019-02-19T08:59:13.606Z,9.60
2019-02-19T09:01:41.467Z,8.90
2019-02-19T09:04:09.951Z,9.30
2019-02-19T09:06:38.435Z,9.20
2019-02-19T09:09:06.909Z,9.90
2019-02-19T09:11:35.395Z,9.70
2019-02-19T09:14:03.869Z,9.80
2019-02-19T09:16:32.350Z,9.50
2019-02-19T09:19:00.830Z,9.40
2019-02-19T09:21:29.311Z,8.90
2019-02-19T09:23:58.521Z,9.00
2019-02-19T09:26:26.682Z,8.70
2019-02-19T09:28:55.163Z,8.90
2019-02-19T09:31:23.642Z,9.20
2019-02-19T09:33:51.713Z,9.10
2019-02-19T09:36:19.784Z,8.80
2019-02-19T09:38:48.265Z,8.90
2019-02-19T09:41:16.745Z,8.80
2019-02-19T09:43:45.226Z,9.20
2019-02-19T09:46:13.502Z,9.30
2019-02-19T09:48:41.983Z,10.30
2019-02-19T09:51:10.463Z,9.90
2019-02-19T09:53:38.944Z,9.60
2019-02-19T09:56:07.424Z,9.50
2019-02-19T09:58:35.905Z,9.30
2019-02-19T10:01:04.384Z,9.90
2019-02-19T10:03:32.868Z,10.00
2019-02-19T10:06:01.347Z,10.20
2019-02-19T10:08:29.829Z,10.50
2019-02-19T10:10:58.310Z,10.40
2019-02-19T10:13:26.788Z,10.90
2019-02-19T10:15:57.111Z,11.00
2019-02-19T10:18:25.591Z,11.50
2019-02-19T10:20:54.074Z,11.40
2019-02-19T10:23:22.559Z,10.60
2019-02-19T10:25:51.033Z,10.50
2019-02-19T10:28:19.513Z,10.20
2019-02-19T10:30:47.993Z,10.10
2019-02-19T10:33:16.474Z,10.20
2019-02-19T10:35:44.954Z,10.90
2019-02-19T10:38:13.233Z,11.80
2019-02-19T10:40:41.506Z,11.80
2019-02-19T10:43:09.783Z,11.90
2019-02-19T10:45:38.057Z,11.50
2019-02-19T10:48:06.333Z,11.30
2019-02-19T10:50:34.816Z,11.70
2019-02-19T10:53:03.091Z,11.40
2019-02-19T10:55:31.570Z,11.60
2019-02-19T10:58:00.050Z,11.90
2019-02-19T11:00:29.554Z,11.70
2019-02-19T11:02:58.036Z,11.70
2019-02-19T11:05:26.515Z,11.80
2019-02-19T11:07:54.791Z,11.90
2019-02-19T11:10:23.067Z,11.80
2019-02-19T11:12:51.345Z,11.80
2019-02-19T11:15:19.618Z,12.00
2019-02-19T11:17:48.099Z,12.20
2019-02-19T11:20:21.062Z,11.90
2019-02-19T11:22:48.747Z,12.20
2019-02-19T11:25:17.226Z,12.40
2019-02-19T11:27:45.707Z,12.50
2019-02-19T11:30:15.774Z,13.00
2019-02-19T11:32:43.489Z,13.60
2019-02-19T11:35:11.969Z,14.30
2019-02-19T11:37:40.449Z,14.90
2019-02-19T11:40:12.840Z,15.70
2019-02-19T11:42:40.485Z,16.00
2019-02-19T11:45:14.084Z,15.90
2019-02-19T11:47:41.744Z,15.50
2019-02-19T11:50:11.618Z,15.30
2019-02-19T11:52:39.319Z,15.10
2019-02-19T11:55:10.544Z,15.20
2019-02-19T11:57:38.942Z,15.10
2019-02-19T12:00:15.001Z,15.50
2019-02-19T12:02:43.480Z,16.00
2019-02-19T12:05:11.961Z,15.40
2019-02-19T12:07:40.261Z,15.00
2019-02-19T12:10:08.925Z,14.50
2019-02-19T12:12:36.583Z,14.50
2019-02-19T12:15:10.672Z,14.60
2019-02-19T12:17:38.273Z,14.30
2019-02-19T12:20:12.266Z,14.50
2019-02-19T12:22:39.722Z,14.80
2019-02-19T12:25:08.485Z,14.60
2019-02-19T12:27:36.273Z,14.30
2019-02-19T12:30:08.186Z,14.30
2019-02-19T12:32:36.515Z,14.20
2019-02-19T12:35:05.457Z,14.20
2019-02-19T12:37:34.086Z,14.50
2019-02-19T12:40:02.568Z,14.80
2019-02-19T12:42:31.047Z,15.30
2019-02-19T12:44:59.540Z,15.30
2019-02-19T12:47:28.010Z,15.10
2019-02-19T12:49:56.489Z,14.70
2019-02-19T12:52:24.969Z,14.90
2019-02-19T12:54:53.041Z,15.00
2019-02-19T12:57:21.520Z,15.10
2019-02-19T12:59:56.415Z,15.00
2019-02-19T13:02:19.916Z,14.80
2019-02-19T13:04:48.396Z,14.30
2019-02-19T13:07:16.884Z,13.80
2019-02-19T13:09:45.358Z,13.30
2019-02-19T13:12:13.838Z,13.10
2019-02-19T13:14:42.320Z,12.80
2019-02-19T13:17:10.798Z,12.50
2019-02-19T13:19:39.074Z,12.40
2019-02-19T13:22:07.557Z,12.40
2019-02-19T13:24:35.889Z,12.20
2019-02-19T13:27:04.314Z,12.10
2019-02-19T13:29:32.791Z,12.00
2019-02-19T13:32:01.271Z,11.80
2019-02-19T13:34:29.548Z,11.50
2019-02-19T13:36:57.824Z,11.40
2019-02-19T13:39:26.149Z,11.10
2019-02-19T13:41:53.762Z,10.90
2019-02-19T13:44:22.243Z,10.70
2019-02-19T13:46:50.723Z,10.50
2019-02-19T13:49:18.997Z,10.40
2019-02-19T13:51:47.273Z,10.20
2019-02-19T13:54:17.188Z,10.20
2019-02-19T13:56:45.463Z,10.20
2019-02-19T13:59:13.738Z,10.10
2019-02-19T14:01:42.015Z,10.00
2019-02-19T14:04:10.495Z,9.80
2019-02-19T14:06:38.975Z,9.70
2019-02-19T14:09:07.455Z,9.60
2019-02-19T14:11:35.936Z,9.40
2019-02-19T14:14:08.719Z,9.20
2019-02-19T14:16:39.041Z,9.10
2019-02-19T14:19:09.367Z,9.00
2019-02-19T14:21:44.828Z,8.90
2019-02-19T14:24:17.386Z,8.90
2019-02-19T14:27:03.479Z,8.80
2019-02-19T14:32:40.580Z,8.70
2019-02-19T14:35:22.988Z,8.60
2019-02-19T14:38:10.109Z,8.50
2019-02-19T14:40:40.230Z,8.50
2019-02-19T14:43:39.016Z,8.40
2019-02-19T14:46:08.945Z,9.30
2019-02-19T14:48:55.637Z,8.40
2019-02-19T14:51:25.961Z,8.40
2019-02-19T14:53:56.084Z,8.40
2019-02-19T14:56:42.991Z,8.30
2019-02-19T14:59:18.846Z,8.30
2019-02-19T15:02:01.047Z,8.20
2019-02-19T15:04:43.054Z,8.20
2019-02-19T15:07:19.307Z,8.10
2019-02-19T15:10:06.222Z,8.10
2019-02-19T15:12:36.339Z,8.00
2019-02-19T15:15:24.480Z,8.00
2019-02-19T15:21:00.969Z,8.00
2019-02-19T15:23:37.846Z,7.90
2019-02-19T15:26:16.978Z,7.90
2019-02-19T15:29:03.479Z,7.80
2019-02-19T15:31:49.981Z,7.80
2019-02-19T15:34:20.305Z,7.90
2019-02-19T15:36:59.026Z,7.80
2019-02-19T15:39:31.807Z,7.80
2019-02-19T15:45:10.550Z,7.80
2019-02-19T15:47:56.699Z,7.80
2019-02-19T15:50:29.422Z,7.80
2019-02-19T15:52:59.336Z,7.80
2019-02-19T15:55:32.120Z,7.80
2019-02-19T16:01:06.580Z,7.70
2019-02-19T16:03:36.474Z,7.70
2019-02-19T16:06:07.207Z,7.60
2019-02-19T16:11:51.831Z,7.50
2019-02-19T16:14:30.206Z,7.60
2019-02-19T16:17:17.109Z,7.60
2019-02-19T16:20:02.389Z,7.60
2019-02-19T16:22:50.283Z,7.60
2019-02-19T16:25:19.456Z,7.50
2019-02-19T16:28:00.644Z,7.50
2019-02-19T16:30:32.874Z,7.50
2019-02-19T16:33:16.600Z,7.40
2019-02-19T16:35:48.544Z,7.40
2019-02-19T16:38:26.722Z,7.30
2019-02-19T16:41:08.060Z,7.30
2019-02-19T16:43:53.810Z,7.20
2019-02-19T16:46:39.279Z,7.20
2019-02-19T16:49:20.224Z,7.20
2019-02-19T16:51:52.087Z,7.30
2019-02-19T16:54:36.049Z,7.30
2019-02-19T16:57:17.077Z,7.30
2019-02-19T17:00:02.553Z,7.20
2019-02-19T17:02:34.440Z,7.30
2019-02-19T17:05:16.194Z,7.30
2019-02-19T17:07:45.702Z,6.80
2019-02-19T17:10:34.460Z,7.30
2019-02-19T17:13:04.578Z,7.30
2019-02-19T17:15:51.285Z,7.30
2019-02-19T17:18:23.068Z,7.20
2019-02-19T17:20:59.099Z,7.30
2019-02-19T17:23:29.015Z,7.20
2019-02-19T17:26:15.516Z,7.20
2019-02-19T17:28:45.673Z,7.20
2019-02-19T17:31:24.974Z,7.10
2019-02-19T17:33:54.683Z,7.10
2019-02-19T17:36:39.961Z,7.00
2019-02-19T17:39:09.925Z,6.90
2019-02-19T17:41:39.986Z,6.80
2019-02-19T17:44:12.973Z,6.80
2019-02-19T17:46:43.162Z,6.70
2019-02-19T17:49:22.017Z,6.80
2019-02-19T17:52:04.220Z,6.70
2019-02-19T17:54:37.382Z,6.60
2019-02-19T17:57:12.854Z,6.60
2019-02-19T17:59:58.332Z,6.50
2019-02-19T18:02:28.114Z,6.40
2019-02-19T18:05:00.413Z,6.40
2019-02-19T18:07:35.871Z,6.40
2019-02-19T18:13:18.080Z,6.50
2019-02-19T18:15:57.515Z,6.50
2019-02-19T18:18:25.693Z,6.50
2019-02-19T18:20:55.252Z,6.50
2019-02-19T18:23:23.470Z,6.70
2019-02-19T18:25:51.542Z,6.50
2019-02-19T18:28:19.411Z,6.50
2019-02-19T18:30:48.092Z,6.40
2019-02-19T18:33:15.885Z,6.40
2019-02-19T18:35:43.163Z,6.40
2019-02-19T18:38:10.503Z,6.40
2019-02-19T18:40:37.939Z,6.30
2019-02-19T18:43:05.486Z,6.30
2019-02-19T18:45:33.053Z,6.30
2019-02-19T18:48:00.424Z,6.30
2019-02-19T18:50:27.781Z,6.30
2019-02-19T18:52:55.081Z,6.40
2019-02-19T18:55:22.401Z,6.40
2019-02-19T18:57:49.768Z,6.40
2019-02-19T19:00:17.268Z,6.30
2019-02-19T19:02:44.636Z,6.30
2019-02-19T19:05:11.918Z,6.40
2019-02-19T19:07:39.463Z,6.40
2019-02-19T19:10:09.226Z,6.50
2019-02-19T19:12:36.541Z,7.40
2019-02-19T19:15:08.894Z,6.50
2019-02-19T19:17:37.095Z,6.50
2019-02-19T19:20:09.796Z,6.50
2019-02-19T19:22:37.152Z,6.50
2019-02-19T19:25:05.017Z,6.60
2019-02-19T19:27:32.321Z,6.60
2019-02-19T19:29:59.617Z,6.70
2019-02-19T19:32:27.102Z,6.70
2019-02-19T19:34:54.518Z,6.70
2019-02-19T19:37:21.801Z,6.70
2019-02-19T19:39:49.118Z,6.60
2019-02-19T19:42:16.435Z,6.70
2019-02-19T19:44:43.707Z,6.60
2019-02-19T19:47:11.021Z,6.60
2019-02-19T19:49:38.310Z,6.50
2019-02-19T19:52:05.654Z,6.50
2019-02-19T19:54:32.933Z,6.60
2019-02-19T19:57:00.317Z,6.50
2019-02-19T19:59:27.628Z,6.40
2019-02-19T20:01:55.019Z,6.30
2019-02-19T20:04:22.301Z,6.30
2019-02-19T20:06:49.624Z,6.30
2019-02-19T20:09:16.962Z,6.30
2019-02-19T20:11:44.345Z,6.30
2019-02-19T20:14:11.687Z,6.30
2019-02-19T20:16:39.006Z,6.30
2019-02-19T20:19:07.254Z,6.30
2019-02-19T20:21:34.909Z,6.30
2019-02-19T20:24:02.192Z,6.20
2019-02-19T20:26:29.521Z,6.20
2019-02-19T20:28:56.836Z,6.10
2019-02-19T20:31:24.193Z,6.20
2019-02-19T20:33:51.529Z,6.20
2019-02-19T20:36:18.813Z,6.20
2019-02-19T20:38:46.148Z,6.30
2019-02-19T20:41:13.671Z,6.40
2019-02-19T20:43:41.012Z,5.30
2019-02-19T20:46:08.433Z,6.40
2019-02-19T20:48:35.737Z,6.40
2019-02-19T20:51:03.015Z,6.40
2019-02-19T20:53:30.328Z,6.40
2019-02-19T20:55:57.641Z,6.50
2019-02-19T20:58:24.933Z,6.40
2019-02-19T21:00:53.335Z,6.40
2019-02-19T21:03:20.706Z,6.40
2019-02-19T21:05:48.050Z,6.40
2019-02-19T21:08:15.302Z,6.40
2019-02-19T21:10:42.649Z,6.40
2019-02-19T21:13:09.945Z,6.50
2019-02-19T21:15:37.221Z,6.50
2019-02-19T21:18:04.535Z,6.50
2019-02-19T21:20:31.836Z,6.50
2019-02-19T21:22:59.116Z,6.50
2019-02-19T21:25:30.998Z,6.50
2019-02-19T21:27:55.505Z,6.50
2019-02-19T21:30:22.785Z,6.50
2019-02-19T21:32:50.134Z,6.60
2019-02-19T21:35:17.413Z,6.60
2019-02-19T21:37:45.283Z,6.60
2019-02-19T21:40:13.681Z,6.60
2019-02-19T21:42:41.028Z,6.60
2019-02-19T21:45:09.741Z,6.60
2019-02-19T21:47:37.037Z,6.60
2019-02-19T21:50:09.481Z,6.50
2019-02-19T21:52:37.959Z,6.60
2019-02-19T21:55:11.913Z,6.50
2019-02-19T21:57:40.246Z,6.50
2019-02-19T22:00:21.668Z,6.40
2019-02-19T22:02:49.293Z,6.40
2019-02-19T22:05:17.769Z,6.40
2019-02-19T22:07:46.046Z,6.30
2019-02-19T22:10:15.959Z,6.40
2019-02-19T22:12:44.243Z,6.30
2019-02-19T22:15:15.584Z,6.30
2019-02-19T22:17:43.664Z,6.30
2019-02-19T22:20:28.270Z,6.30
2019-02-19T22:22:56.590Z,6.20
2019-02-19T22:25:26.503Z,6.20
2019-02-19T22:27:54.983Z,6.20
2019-02-19T22:30:23.464Z,6.10
2019-02-19T22:32:51.945Z,6.10
2019-02-19T22:35:20.083Z,6.10
2019-02-19T22:37:49.727Z,6.10
2019-02-19T22:40:18.002Z,6.00
2019-02-19T22:42:46.276Z,6.00
2019-02-19T22:45:14.554Z,6.00
2019-02-19T22:47:42.623Z,5.90
2019-02-19T22:50:11.105Z,5.90
2019-02-19T22:52:39.584Z,6.00
2019-02-19T22:55:17.077Z,6.10
2019-02-19T22:57:45.353Z,6.10
2019-02-19T23:00:27.963Z,6.10
2019-02-19T23:02:55.625Z,6.10
2019-02-19T23:05:24.105Z,6.10
2019-02-19T23:07:53.790Z,6.10
2019-02-19T23:10:21.886Z,6.10
2019-02-19T23:12:50.162Z,6.10
2019-02-19T23:15:18.437Z,6.20
2019-02-19T23:17:46.509Z,6.10
2019-02-19T23:20:14.801Z,6.20
2019-02-19T23:22:43.059Z,6.20
2019-02-19T23:25:12.564Z,6.20
2019-02-19T23:27:40.839Z,6.20
2019-02-19T23:30:09.115Z,6.20
2019-02-19T23:32:37.391Z,6.20
2019-02-19T23:35:09.814Z,6.20
2019-02-19T23:37:38.038Z,6.20
2019-02-19T23:40:06.318Z,6.20
2019-02-19T23:42:34.590Z,6.20
2019-02-19T23:45:22.433Z,6.20
2019-02-19T23:47:50.807Z,6.60
2019-02-19T23:50:18.873Z,6.20
2019-02-19T23:52:47.150Z,6.10
2019-02-19T23:55:15.424Z,6.10
2019-02-19T23:57:43.496Z,6.10
